sensor_id;sensor_type;location;lat;lon;timestamp;P1;durP1;ratioP1;P2;durP2;ratioP2
52456;SDS011;38369;52.840;7.082;2022-10-31T00:01:37;29.42;;;18.67;;
52456;SDS011;38369;52.840;7.082;2022-10-31T00:04:03;30.98;;;18.02;;
52456;SDS011;38369;52.840;7.082;2022-10-31T00:06:30;34.47;;;18.55;;
52456;SDS011;38369;52.840;7.082;2022-10-31T00:09:00;31.20;;;18.10;;
52456;SDS011;38369;52.840;7.082;2022-10-31T00:13:52;29.55;;;18.05;;
52456;SDS011;38369;52.840;7.082;2022-10-31T00:16:20;36.40;;;18.98;;
52456;SDS011;38369;52.840;7.082;2022-10-31T00:18:54;32.28;;;17.45;;
52456;SDS011;38369;52.840;7.082;2022-10-31T00:21:20;39.08;;;17.42;;
52456;SDS011;38369;52.840;7.082;2022-10-31T00:23:47;32.33;;;17.50;;
52456;SDS011;38369;52.840;7.082;2022-10-31T00:26:13;28.92;;;17.15;;
52456;SDS011;38369;52.840;7.082;2022-10-31T00:28:39;28.35;;;17.25;;
52456;SDS011;38369;52.840;7.082;2022-10-31T00:31:07;33.10;;;18.48;;
52456;SDS011;38369;52.840;7.082;2022-10-31T00:33:34;34.22;;;19.45;;
52456;SDS011;38369;52.840;7.082;2022-10-31T00:36:01;34.25;;;20.33;;
52456;SDS011;38369;52.840;7.082;2022-10-31T00:38:27;37.17;;;22.15;;
52456;SDS011;38369;52.840;7.082;2022-10-31T00:40:54;40.75;;;22.63;;
52456;SDS011;38369;52.840;7.082;2022-10-31T00:43:20;43.80;;;23.88;;
52456;SDS011;38369;52.840;7.082;2022-10-31T00:45:46;40.13;;;23.83;;
52456;SDS011;38369;52.840;7.082;2022-10-31T00:48:12;49.33;;;25.20;;
52456;SDS011;38369;52.840;7.082;2022-10-31T00:50:38;39.97;;;23.27;;
52456;SDS011;38369;52.840;7.082;2022-10-31T00:53:04;36.80;;;25.15;;
52456;SDS011;38369;52.840;7.082;2022-10-31T00:55:30;37.00;;;21.10;;
52456;SDS011;38369;52.840;7.082;2022-10-31T00:57:56;35.00;;;23.02;;
52456;SDS011;38369;52.840;7.082;2022-10-31T01:00:22;40.17;;;20.50;;
52456;SDS011;38369;52.840;7.082;2022-10-31T01:02:48;37.20;;;22.42;;
52456;SDS011;38369;52.840;7.082;2022-10-31T01:05:14;40.55;;;21.40;;
52456;SDS011;38369;52.840;7.082;2022-10-31T01:07:41;38.10;;;21.92;;
52456;SDS011;38369;52.840;7.082;2022-10-31T01:10:07;38.22;;;21.20;;
52456;SDS011;38369;52.840;7.082;2022-10-31T01:12:37;34.92;;;21.50;;
52456;SDS011;38369;52.840;7.082;2022-10-31T01:15:04;32.40;;;20.05;;
52456;SDS011;38369;52.840;7.082;2022-10-31T01:17:30;29.90;;;21.20;;
52456;SDS011;38369;52.840;7.082;2022-10-31T01:19:56;27.05;;;18.60;;
52456;SDS011;38369;52.840;7.082;2022-10-31T01:22:22;25.40;;;17.50;;
52456;SDS011;38369;52.840;7.082;2022-10-31T01:24:48;33.03;;;18.58;;
52456;SDS011;38369;52.840;7.082;2022-10-31T01:27:14;30.00;;;20.05;;
52456;SDS011;38369;52.840;7.082;2022-10-31T01:29:40;28.30;;;16.38;;
52456;SDS011;38369;52.840;7.082;2022-10-31T01:32:06;19.27;;;14.10;;
52456;SDS011;38369;52.840;7.082;2022-10-31T01:34:32;21.02;;;14.15;;
52456;SDS011;38369;52.840;7.082;2022-10-31T01:36:58;21.30;;;14.25;;
52456;SDS011;38369;52.840;7.082;2022-10-31T01:39:24;20.00;;;14.15;;
52456;SDS011;38369;52.840;7.082;2022-10-31T01:41:51;30.27;;;18.27;;
52456;SDS011;38369;52.840;7.082;2022-10-31T01:46:47;28.88;;;18.40;;
52456;SDS011;38369;52.840;7.082;2022-10-31T01:49:16;29.15;;;18.42;;
52456;SDS011;38369;52.840;7.082;2022-10-31T01:52:02;28.98;;;18.20;;
52456;SDS011;38369;52.840;7.082;2022-10-31T01:54:31;32.78;;;19.60;;
52456;SDS011;38369;52.840;7.082;2022-10-31T01:56:58;27.35;;;18.67;;
52456;SDS011;38369;52.840;7.082;2022-10-31T01:59:25;31.92;;;20.25;;
52456;SDS011;38369;52.840;7.082;2022-10-31T02:01:52;37.60;;;21.45;;
52456;SDS011;38369;52.840;7.082;2022-10-31T02:04:19;29.50;;;20.60;;
52456;SDS011;38369;52.840;7.082;2022-10-31T02:06:57;41.05;;;21.17;;
52456;SDS011;38369;52.840;7.082;2022-10-31T02:09:24;34.20;;;21.33;;
52456;SDS011;38369;52.840;7.082;2022-10-31T02:11:51;37.72;;;22.48;;
52456;SDS011;38369;52.840;7.082;2022-10-31T02:14:18;39.72;;;22.55;;
52456;SDS011;38369;52.840;7.082;2022-10-31T02:16:44;41.00;;;23.02;;
52456;SDS011;38369;52.840;7.082;2022-10-31T02:19:11;36.90;;;21.58;;
52456;SDS011;38369;52.840;7.082;2022-10-31T02:21:42;30.88;;;19.83;;
52456;SDS011;38369;52.840;7.082;2022-10-31T02:26:53;34.85;;;21.65;;
52456;SDS011;38369;52.840;7.082;2022-10-31T02:32:00;34.55;;;22.13;;
52456;SDS011;38369;52.840;7.082;2022-10-31T02:36:57;40.28;;;23.38;;
52456;SDS011;38369;52.840;7.082;2022-10-31T02:39:34;45.70;;;25.10;;
52456;SDS011;38369;52.840;7.082;2022-10-31T03:25:22;30.30;;;18.95;;
52456;SDS011;38369;52.840;7.082;2022-10-31T03:27:49;28.65;;;19.50;;
52456;SDS011;38369;52.840;7.082;2022-10-31T03:30:17;28.13;;;18.40;;
52456;SDS011;38369;52.840;7.082;2022-10-31T03:32:47;28.48;;;19.98;;
52456;SDS011;38369;52.840;7.082;2022-10-31T03:35:15;25.65;;;17.60;;
52456;SDS011;38369;52.840;7.082;2022-10-31T03:37:43;24.30;;;16.92;;
52456;SDS011;38369;52.840;7.082;2022-10-31T03:40:10;33.08;;;21.55;;
52456;SDS011;38369;52.840;7.082;2022-10-31T03:42:38;37.80;;;21.60;;
52456;SDS011;38369;52.840;7.082;2022-10-31T03:47:34;35.45;;;21.77;;
52456;SDS011;38369;52.840;7.082;2022-10-31T03:50:02;37.22;;;21.27;;
52456;SDS011;38369;52.840;7.082;2022-10-31T03:52:29;39.22;;;21.63;;
52456;SDS011;38369;52.840;7.082;2022-10-31T04:00:12;33.53;;;21.10;;
52456;SDS011;38369;52.840;7.082;2022-10-31T04:02:40;25.48;;;19.35;;
52456;SDS011;38369;52.840;7.082;2022-10-31T04:05:07;33.63;;;19.35;;
52456;SDS011;38369;52.840;7.082;2022-10-31T04:07:35;27.90;;;17.55;;
52456;SDS011;38369;52.840;7.082;2022-10-31T04:10:03;27.52;;;16.98;;
52456;SDS011;38369;52.840;7.082;2022-10-31T04:12:30;23.33;;;15.68;;
52456;SDS011;38369;52.840;7.082;2022-10-31T04:14:58;22.17;;;15.23;;
52456;SDS011;38369;52.840;7.082;2022-10-31T04:17:25;22.25;;;14.90;;
52456;SDS011;38369;52.840;7.082;2022-10-31T04:19:53;25.95;;;15.77;;
52456;SDS011;38369;52.840;7.082;2022-10-31T04:22:19;24.08;;;17.65;;
52456;SDS011;38369;52.840;7.082;2022-10-31T04:24:45;26.40;;;16.25;;
52456;SDS011;38369;52.840;7.082;2022-10-31T04:27:11;23.75;;;16.45;;
52456;SDS011;38369;52.840;7.082;2022-10-31T04:29:37;26.80;;;15.85;;
52456;SDS011;38369;52.840;7.082;2022-10-31T04:32:03;20.63;;;14.70;;
52456;SDS011;38369;52.840;7.082;2022-10-31T04:34:29;23.15;;;16.55;;
52456;SDS011;38369;52.840;7.082;2022-10-31T04:36:55;21.50;;;15.32;;
52456;SDS011;38369;52.840;7.082;2022-10-31T04:39:21;21.45;;;15.73;;
52456;SDS011;38369;52.840;7.082;2022-10-31T04:41:47;21.17;;;16.15;;
52456;SDS011;38369;52.840;7.082;2022-10-31T04:44:13;24.15;;;16.60;;
52456;SDS011;38369;52.840;7.082;2022-10-31T04:46:39;28.15;;;15.25;;
52456;SDS011;38369;52.840;7.082;2022-10-31T04:49:05;23.55;;;13.85;;
52456;SDS011;38369;52.840;7.082;2022-10-31T04:51:31;22.48;;;13.85;;
52456;SDS011;38369;52.840;7.082;2022-10-31T04:53:57;22.13;;;14.93;;
52456;SDS011;38369;52.840;7.082;2022-10-31T04:56:23;23.38;;;13.63;;
52456;SDS011;38369;52.840;7.082;2022-10-31T04:58:49;30.95;;;11.40;;
52456;SDS011;38369;52.840;7.082;2022-10-31T05:01:15;11.68;;;10.45;;
52456;SDS011;38369;52.840;7.082;2022-10-31T05:03:41;12.35;;;9.20;;
52456;SDS011;38369;52.840;7.082;2022-10-31T05:06:07;18.67;;;9.10;;
52456;SDS011;38369;52.840;7.082;2022-10-31T05:08:34;8.52;;;7.70;;
52456;SDS011;38369;52.840;7.082;2022-10-31T05:11:03;8.98;;;7.60;;
52456;SDS011;38369;52.840;7.082;2022-10-31T05:13:29;9.73;;;8.73;;
52456;SDS011;38369;52.840;7.082;2022-10-31T05:15:55;11.27;;;9.00;;
52456;SDS011;38369;52.840;7.082;2022-10-31T05:18:21;14.65;;;10.70;;
52456;SDS011;38369;52.840;7.082;2022-10-31T05:20:48;15.82;;;11.48;;
52456;SDS011;38369;52.840;7.082;2022-10-31T05:23:14;14.93;;;11.13;;
52456;SDS011;38369;52.840;7.082;2022-10-31T05:25:40;29.30;;;12.13;;
52456;SDS011;38369;52.840;7.082;2022-10-31T05:28:06;13.82;;;9.73;;
52456;SDS011;38369;52.840;7.082;2022-10-31T05:30:33;15.27;;;9.43;;
52456;SDS011;38369;52.840;7.082;2022-10-31T05:32:59;24.40;;;8.68;;
52456;SDS011;38369;52.840;7.082;2022-10-31T05:35:29;43.30;;;8.27;;
52456;SDS011;38369;52.840;7.082;2022-10-31T05:37:56;17.88;;;7.85;;
52456;SDS011;38369;52.840;7.082;2022-10-31T05:40:22;14.65;;;9.20;;
52456;SDS011;38369;52.840;7.082;2022-10-31T05:42:52;14.80;;;11.52;;
52456;SDS011;38369;52.840;7.082;2022-10-31T05:45:18;21.50;;;14.35;;
52456;SDS011;38369;52.840;7.082;2022-10-31T05:47:49;18.50;;;13.90;;
52456;SDS011;38369;52.840;7.082;2022-10-31T05:50:15;23.75;;;16.48;;
52456;SDS011;38369;52.840;7.082;2022-10-31T05:52:42;22.45;;;15.23;;
52456;SDS011;38369;52.840;7.082;2022-10-31T05:55:08;26.55;;;15.80;;
52456;SDS011;38369;52.840;7.082;2022-10-31T05:57:34;24.80;;;14.70;;
52456;SDS011;38369;52.840;7.082;2022-10-31T06:00:00;53.90;;;14.40;;
52456;SDS011;38369;52.840;7.082;2022-10-31T06:02:26;60.75;;;15.57;;
52456;SDS011;38369;52.840;7.082;2022-10-31T06:04:52;76.53;;;18.10;;
52456;SDS011;38369;52.840;7.082;2022-10-31T06:07:18;37.60;;;15.15;;
52456;SDS011;38369;52.840;7.082;2022-10-31T06:09:44;53.45;;;17.83;;
52456;SDS011;38369;52.840;7.082;2022-10-31T06:12:10;35.00;;;15.73;;
52456;SDS011;38369;52.840;7.082;2022-10-31T06:14:36;39.97;;;17.17;;
52456;SDS011;38369;52.840;7.082;2022-10-31T06:17:02;63.90;;;18.40;;
52456;SDS011;38369;52.840;7.082;2022-10-31T06:19:28;41.42;;;16.50;;
52456;SDS011;38369;52.840;7.082;2022-10-31T06:21:54;22.10;;;16.25;;
52456;SDS011;38369;52.840;7.082;2022-10-31T06:24:20;24.23;;;16.85;;
52456;SDS011;38369;52.840;7.082;2022-10-31T06:26:46;32.85;;;18.33;;
52456;SDS011;38369;52.840;7.082;2022-10-31T06:29:12;28.73;;;18.77;;
52456;SDS011;38369;52.840;7.082;2022-10-31T06:31:38;24.77;;;17.73;;
52456;SDS011;38369;52.840;7.082;2022-10-31T06:34:04;31.08;;;18.80;;
52456;SDS011;38369;52.840;7.082;2022-10-31T06:36:30;24.35;;;18.02;;
52456;SDS011;38369;52.840;7.082;2022-10-31T06:38:56;28.77;;;19.20;;
52456;SDS011;38369;52.840;7.082;2022-10-31T06:41:22;26.42;;;18.83;;
52456;SDS011;38369;52.840;7.082;2022-10-31T06:43:48;24.05;;;18.33;;
52456;SDS011;38369;52.840;7.082;2022-10-31T06:46:15;25.73;;;17.65;;
52456;SDS011;38369;52.840;7.082;2022-10-31T06:48:41;23.40;;;16.98;;
52456;SDS011;38369;52.840;7.082;2022-10-31T06:51:07;23.90;;;15.85;;
52456;SDS011;38369;52.840;7.082;2022-10-31T06:53:33;26.33;;;15.85;;
52456;SDS011;38369;52.840;7.082;2022-10-31T06:55:59;21.73;;;16.25;;
52456;SDS011;38369;52.840;7.082;2022-10-31T06:58:25;45.85;;;19.85;;
52456;SDS011;38369;52.840;7.082;2022-10-31T07:00:51;57.00;;;20.35;;
52456;SDS011;38369;52.840;7.082;2022-10-31T07:03:17;41.50;;;18.17;;
52456;SDS011;38369;52.840;7.082;2022-10-31T07:05:45;33.20;;;17.63;;
52456;SDS011;38369;52.840;7.082;2022-10-31T07:08:12;79.88;;;21.25;;
52456;SDS011;38369;52.840;7.082;2022-10-31T07:10:38;53.22;;;19.30;;
52456;SDS011;38369;52.840;7.082;2022-10-31T07:13:06;51.53;;;19.98;;
52456;SDS011;38369;52.840;7.082;2022-10-31T07:15:33;57.47;;;21.05;;
52456;SDS011;38369;52.840;7.082;2022-10-31T07:18:00;100.63;;;27.85;;
52456;SDS011;38369;52.840;7.082;2022-10-31T07:20:26;86.80;;;31.27;;
52456;SDS011;38369;52.840;7.082;2022-10-31T07:22:52;81.82;;;34.70;;
52456;SDS011;38369;52.840;7.082;2022-10-31T07:25:19;69.80;;;25.65;;
52456;SDS011;38369;52.840;7.082;2022-10-31T07:27:45;49.45;;;22.05;;
52456;SDS011;38369;52.840;7.082;2022-10-31T07:30:11;34.63;;;20.20;;
52456;SDS011;38369;52.840;7.082;2022-10-31T07:32:39;55.72;;;23.52;;
52456;SDS011;38369;52.840;7.082;2022-10-31T07:35:06;35.58;;;22.08;;
52456;SDS011;38369;52.840;7.082;2022-10-31T07:37:32;38.25;;;23.58;;
52456;SDS011;38369;52.840;7.082;2022-10-31T07:39:58;37.28;;;20.40;;
52456;SDS011;38369;52.840;7.082;2022-10-31T07:42:24;39.28;;;23.40;;
52456;SDS011;38369;52.840;7.082;2022-10-31T07:44:50;75.80;;;26.63;;
52456;SDS011;38369;52.840;7.082;2022-10-31T07:47:16;33.85;;;23.33;;
52456;SDS011;38369;52.840;7.082;2022-10-31T07:49:42;38.67;;;22.70;;
52456;SDS011;38369;52.840;7.082;2022-10-31T07:52:08;45.92;;;24.60;;
52456;SDS011;38369;52.840;7.082;2022-10-31T07:54:34;35.97;;;24.13;;
52456;SDS011;38369;52.840;7.082;2022-10-31T07:57:00;39.13;;;25.60;;
52456;SDS011;38369;52.840;7.082;2022-10-31T07:59:26;45.90;;;25.58;;
52456;SDS011;38369;52.840;7.082;2022-10-31T08:01:53;36.55;;;24.30;;
52456;SDS011;38369;52.840;7.082;2022-10-31T08:04:19;37.90;;;26.38;;
52456;SDS011;38369;52.840;7.082;2022-10-31T08:06:45;34.58;;;22.73;;
52456;SDS011;38369;52.840;7.082;2022-10-31T08:09:13;39.78;;;25.27;;
52456;SDS011;38369;52.840;7.082;2022-10-31T08:11:39;41.17;;;25.13;;
52456;SDS011;38369;52.840;7.082;2022-10-31T08:14:05;40.58;;;25.70;;
52456;SDS011;38369;52.840;7.082;2022-10-31T08:16:31;42.08;;;27.77;;
52456;SDS011;38369;52.840;7.082;2022-10-31T08:18:57;50.65;;;30.75;;
52456;SDS011;38369;52.840;7.082;2022-10-31T08:21:23;53.45;;;31.20;;
52456;SDS011;38369;52.840;7.082;2022-10-31T08:23:49;51.97;;;31.05;;
52456;SDS011;38369;52.840;7.082;2022-10-31T08:26:15;56.17;;;33.75;;
52456;SDS011;38369;52.840;7.082;2022-10-31T08:28:41;62.80;;;36.83;;
52456;SDS011;38369;52.840;7.082;2022-10-31T08:31:07;65.40;;;36.95;;
52456;SDS011;38369;52.840;7.082;2022-10-31T08:33:35;62.28;;;36.00;;
52456;SDS011;38369;52.840;7.082;2022-10-31T08:36:01;71.75;;;38.17;;
52456;SDS011;38369;52.840;7.082;2022-10-31T08:38:27;76.55;;;40.78;;
52456;SDS011;38369;52.840;7.082;2022-10-31T08:40:53;75.20;;;40.85;;
52456;SDS011;38369;52.840;7.082;2022-10-31T08:43:19;73.45;;;42.03;;
52456;SDS011;38369;52.840;7.082;2022-10-31T08:45:47;65.25;;;38.53;;
52456;SDS011;38369;52.840;7.082;2022-10-31T08:48:14;75.50;;;40.03;;
52456;SDS011;38369;52.840;7.082;2022-10-31T08:50:41;78.65;;;43.50;;
52456;SDS011;38369;52.840;7.082;2022-10-31T08:53:16;65.85;;;38.15;;
52456;SDS011;38369;52.840;7.082;2022-10-31T08:55:43;66.38;;;37.78;;
52456;SDS011;38369;52.840;7.082;2022-10-31T08:58:10;72.30;;;41.22;;
52456;SDS011;38369;52.840;7.082;2022-10-31T09:00:37;64.93;;;38.60;;
52456;SDS011;38369;52.840;7.082;2022-10-31T09:03:04;72.15;;;38.38;;
52456;SDS011;38369;52.840;7.082;2022-10-31T09:05:31;83.57;;;44.00;;
52456;SDS011;38369;52.840;7.082;2022-10-31T09:07:57;87.22;;;44.83;;
52456;SDS011;38369;52.840;7.082;2022-10-31T09:10:24;81.75;;;43.75;;
52456;SDS011;38369;52.840;7.082;2022-10-31T09:13:01;75.97;;;42.22;;
52456;SDS011;38369;52.840;7.082;2022-10-31T09:15:29;83.15;;;43.83;;
52456;SDS011;38369;52.840;7.082;2022-10-31T09:17:55;78.03;;;43.50;;
52456;SDS011;38369;52.840;7.082;2022-10-31T09:20:22;68.80;;;39.20;;
52456;SDS011;38369;52.840;7.082;2022-10-31T09:22:48;80.55;;;42.78;;
52456;SDS011;38369;52.840;7.082;2022-10-31T09:25:20;71.05;;;39.05;;
52456;SDS011;38369;52.840;7.082;2022-10-31T09:27:46;66.20;;;39.30;;
52456;SDS011;38369;52.840;7.082;2022-10-31T09:30:12;75.15;;;40.03;;
52456;SDS011;38369;52.840;7.082;2022-10-31T09:32:38;72.57;;;41.45;;
52456;SDS011;38369;52.840;7.082;2022-10-31T09:35:05;71.40;;;40.08;;
52456;SDS011;38369;52.840;7.082;2022-10-31T09:37:31;62.75;;;37.10;;
52456;SDS011;38369;52.840;7.082;2022-10-31T09:39:57;70.25;;;39.20;;
52456;SDS011;38369;52.840;7.082;2022-10-31T09:42:33;66.15;;;36.85;;
52456;SDS011;38369;52.840;7.082;2022-10-31T09:50:25;62.33;;;34.40;;
52456;SDS011;38369;52.840;7.082;2022-10-31T09:53:02;63.50;;;35.97;;
52456;SDS011;38369;52.840;7.082;2022-10-31T09:55:42;59.95;;;34.33;;
52456;SDS011;38369;52.840;7.082;2022-10-31T09:58:26;64.90;;;35.85;;
52456;SDS011;38369;52.840;7.082;2022-10-31T10:00:53;62.65;;;35.33;;
52456;SDS011;38369;52.840;7.082;2022-10-31T10:03:24;64.13;;;35.60;;
52456;SDS011;38369;52.840;7.082;2022-10-31T10:06:04;56.30;;;34.55;;
52456;SDS011;38369;52.840;7.082;2022-10-31T10:08:34;62.35;;;35.92;;
52456;SDS011;38369;52.840;7.082;2022-10-31T10:11:05;60.42;;;34.50;;
52456;SDS011;38369;52.840;7.082;2022-10-31T10:16:14;52.20;;;32.55;;
52456;SDS011;38369;52.840;7.082;2022-10-31T10:21:31;54.60;;;33.33;;
52456;SDS011;38369;52.840;7.082;2022-10-31T10:24:05;55.10;;;31.67;;
52456;SDS011;38369;52.840;7.082;2022-10-31T10:26:37;46.22;;;30.80;;
52456;SDS011;38369;52.840;7.082;2022-10-31T10:29:28;53.00;;;31.05;;
52456;SDS011;38369;52.840;7.082;2022-10-31T10:31:50;53.08;;;31.92;;
52456;SDS011;38369;52.840;7.082;2022-10-31T10:34:21;53.20;;;32.88;;
52456;SDS011;38369;52.840;7.082;2022-10-31T10:36:52;60.08;;;32.40;;
52456;SDS011;38369;52.840;7.082;2022-10-31T10:39:22;56.00;;;32.33;;
52456;SDS011;38369;52.840;7.082;2022-10-31T10:41:49;49.67;;;32.42;;
52456;SDS011;38369;52.840;7.082;2022-10-31T10:44:38;47.20;;;29.38;;
52456;SDS011;38369;52.840;7.082;2022-10-31T10:47:25;51.37;;;31.23;;
52456;SDS011;38369;52.840;7.082;2022-10-31T10:50:14;45.80;;;28.52;;
52456;SDS011;38369;52.840;7.082;2022-10-31T11:00:23;49.20;;;27.52;;
52456;SDS011;38369;52.840;7.082;2022-10-31T11:02:49;43.53;;;28.75;;
52456;SDS011;38369;52.840;7.082;2022-10-31T11:05:24;45.95;;;29.33;;
52456;SDS011;38369;52.840;7.082;2022-10-31T11:07:50;51.53;;;28.52;;
52456;SDS011;38369;52.840;7.082;2022-10-31T11:10:17;41.15;;;27.73;;
52456;SDS011;38369;52.840;7.082;2022-10-31T11:12:44;43.72;;;26.92;;
52456;SDS011;38369;52.840;7.082;2022-10-31T11:15:21;44.45;;;26.70;;
52456;SDS011;38369;52.840;7.082;2022-10-31T11:17:48;40.42;;;25.55;;
52456;SDS011;38369;52.840;7.082;2022-10-31T11:22:41;34.78;;;22.35;;
52456;SDS011;38369;52.840;7.082;2022-10-31T11:25:20;36.22;;;22.70;;
52456;SDS011;38369;52.840;7.082;2022-10-31T11:27:46;34.25;;;21.38;;
52456;SDS011;38369;52.840;7.082;2022-10-31T11:30:13;35.05;;;21.48;;
52456;SDS011;38369;52.840;7.082;2022-10-31T11:32:45;33.95;;;20.17;;
52456;SDS011;38369;52.840;7.082;2022-10-31T11:35:14;31.50;;;20.48;;
52456;SDS011;38369;52.840;7.082;2022-10-31T11:37:43;33.38;;;20.80;;
52456;SDS011;38369;52.840;7.082;2022-10-31T11:40:17;27.17;;;18.10;;
52456;SDS011;38369;52.840;7.082;2022-10-31T11:42:43;31.17;;;18.60;;
52456;SDS011;38369;52.840;7.082;2022-10-31T11:47:40;27.80;;;17.08;;
52456;SDS011;38369;52.840;7.082;2022-10-31T11:50:11;26.25;;;15.63;;
52456;SDS011;38369;52.840;7.082;2022-10-31T11:52:40;28.45;;;16.45;;
52456;SDS011;38369;52.840;7.082;2022-10-31T11:57:46;28.50;;;17.27;;
52456;SDS011;38369;52.840;7.082;2022-10-31T12:02:47;28.35;;;17.63;;
52456;SDS011;38369;52.840;7.082;2022-10-31T12:05:24;24.30;;;16.13;;
52456;SDS011;38369;52.840;7.082;2022-10-31T12:07:52;21.33;;;14.50;;
52456;SDS011;38369;52.840;7.082;2022-10-31T12:10:19;20.17;;;12.48;;
52456;SDS011;38369;52.840;7.082;2022-10-31T12:20:20;17.30;;;11.13;;
52456;SDS011;38369;52.840;7.082;2022-10-31T12:23:06;16.92;;;10.73;;
52456;SDS011;38369;52.840;7.082;2022-10-31T12:36:21;14.80;;;8.68;;
52456;SDS011;38369;52.840;7.082;2022-10-31T12:38:59;17.65;;;10.05;;
52456;SDS011;38369;52.840;7.082;2022-10-31T12:46:25;19.35;;;8.15;;
52456;SDS011;38369;52.840;7.082;2022-10-31T12:49:13;17.30;;;8.75;;
52456;SDS011;38369;52.840;7.082;2022-10-31T12:57:38;18.50;;;9.57;;
52456;SDS011;38369;52.840;7.082;2022-10-31T12:59:33;11.65;;;8.13;;
52456;SDS011;38369;52.840;7.082;2022-10-31T13:04:47;12.48;;;6.43;;
52456;SDS011;38369;52.840;7.082;2022-10-31T13:07:18;10.25;;;5.07;;
52456;SDS011;38369;52.840;7.082;2022-10-31T13:09:47;11.82;;;4.90;;
52456;SDS011;38369;52.840;7.082;2022-10-31T13:12:15;11.25;;;4.68;;
52456;SDS011;38369;52.840;7.082;2022-10-31T13:14:44;8.07;;;4.60;;
52456;SDS011;38369;52.840;7.082;2022-10-31T13:17:28;9.05;;;4.53;;
52456;SDS011;38369;52.840;7.082;2022-10-31T13:20:03;8.55;;;4.72;;
52456;SDS011;38369;52.840;7.082;2022-10-31T13:22:31;11.20;;;5.18;;
52456;SDS011;38369;52.840;7.082;2022-10-31T13:25:11;11.23;;;4.35;;
52456;SDS011;38369;52.840;7.082;2022-10-31T13:27:42;7.13;;;3.33;;
52456;SDS011;38369;52.840;7.082;2022-10-31T13:32:40;9.13;;;4.88;;
52456;SDS011;38369;52.840;7.082;2022-10-31T13:35:12;9.52;;;4.20;;
52456;SDS011;38369;52.840;7.082;2022-10-31T13:37:48;8.57;;;4.13;;
52456;SDS011;38369;52.840;7.082;2022-10-31T13:45:14;8.18;;;4.30;;
52456;SDS011;38369;52.840;7.082;2022-10-31T13:47:40;7.70;;;4.72;;
52456;SDS011;38369;52.840;7.082;2022-10-31T13:50:24;10.40;;;4.68;;
52456;SDS011;38369;52.840;7.082;2022-10-31T13:52:50;11.90;;;4.75;;
52456;SDS011;38369;52.840;7.082;2022-10-31T13:55:39;12.00;;;5.50;;
52456;SDS011;38369;52.840;7.082;2022-10-31T14:00:57;10.40;;;5.65;;
52456;SDS011;38369;52.840;7.082;2022-10-31T14:03:23;9.25;;;5.63;;
52456;SDS011;38369;52.840;7.082;2022-10-31T14:05:54;7.88;;;6.03;;
52456;SDS011;38369;52.840;7.082;2022-10-31T14:08:21;8.93;;;6.03;;
52456;SDS011;38369;52.840;7.082;2022-10-31T14:10:50;12.30;;;7.35;;
52456;SDS011;38369;52.840;7.082;2022-10-31T14:15:53;14.63;;;7.82;;
52456;SDS011;38369;52.840;7.082;2022-10-31T14:20:58;19.35;;;9.15;;
52456;SDS011;38369;52.840;7.082;2022-10-31T14:25:54;17.30;;;9.60;;
52456;SDS011;38369;52.840;7.082;2022-10-31T14:28:32;16.05;;;10.15;;
52456;SDS011;38369;52.840;7.082;2022-10-31T14:30:59;14.30;;;9.52;;
52456;SDS011;38369;52.840;7.082;2022-10-31T14:33:26;15.00;;;9.77;;
52456;SDS011;38369;52.840;7.082;2022-10-31T14:41:08;20.15;;;12.73;;
52456;SDS011;38369;52.840;7.082;2022-10-31T14:46:09;17.35;;;10.45;;
52456;SDS011;38369;52.840;7.082;2022-10-31T14:51:19;15.38;;;9.98;;
52456;SDS011;38369;52.840;7.082;2022-10-31T14:53:47;17.65;;;12.13;;
52456;SDS011;38369;52.840;7.082;2022-10-31T14:56:17;14.82;;;11.02;;
52456;SDS011;38369;52.840;7.082;2022-10-31T14:58:45;17.92;;;11.27;;
52456;SDS011;38369;52.840;7.082;2022-10-31T15:01:26;17.88;;;11.38;;
52456;SDS011;38369;52.840;7.082;2022-10-31T15:03:53;15.25;;;10.70;;
52456;SDS011;38369;52.840;7.082;2022-10-31T15:06:21;18.00;;;11.00;;
52456;SDS011;38369;52.840;7.082;2022-10-31T15:08:49;14.90;;;11.52;;
52456;SDS011;38369;52.840;7.082;2022-10-31T15:11:17;16.98;;;12.45;;
52456;SDS011;38369;52.840;7.082;2022-10-31T15:16:34;15.88;;;11.18;;
52456;SDS011;38369;52.840;7.082;2022-10-31T15:19:04;18.52;;;12.43;;
52456;SDS011;38369;52.840;7.082;2022-10-31T15:21:31;15.15;;;11.85;;
52456;SDS011;38369;52.840;7.082;2022-10-31T15:23:59;19.08;;;12.88;;
52456;SDS011;38369;52.840;7.082;2022-10-31T15:26:27;18.98;;;12.98;;
52456;SDS011;38369;52.840;7.082;2022-10-31T15:28:59;18.77;;;13.00;;
52456;SDS011;38369;52.840;7.082;2022-10-31T15:33:51;18.73;;;13.05;;
52456;SDS011;38369;52.840;7.082;2022-10-31T15:36:20;23.02;;;15.55;;
52456;SDS011;38369;52.840;7.082;2022-10-31T15:38:47;20.92;;;14.05;;
52456;SDS011;38369;52.840;7.082;2022-10-31T15:43:54;25.90;;;15.77;;
52456;SDS011;38369;52.840;7.082;2022-10-31T15:46:22;24.40;;;15.52;;
52456;SDS011;38369;52.840;7.082;2022-10-31T15:48:48;28.20;;;16.52;;
52456;SDS011;38369;52.840;7.082;2022-10-31T15:51:14;27.75;;;18.10;;
52456;SDS011;38369;52.840;7.082;2022-10-31T15:53:45;27.42;;;17.52;;
52456;SDS011;38369;52.840;7.082;2022-10-31T15:56:13;27.30;;;17.75;;
52456;SDS011;38369;52.840;7.082;2022-10-31T15:58:46;25.80;;;18.90;;
52456;SDS011;38369;52.840;7.082;2022-10-31T16:01:23;32.63;;;20.67;;
52456;SDS011;38369;52.840;7.082;2022-10-31T16:06:45;33.42;;;20.85;;
52456;SDS011;38369;52.840;7.082;2022-10-31T16:09:22;33.15;;;21.88;;
52456;SDS011;38369;52.840;7.082;2022-10-31T16:11:48;30.15;;;21.08;;
52456;SDS011;38369;52.840;7.082;2022-10-31T16:14:15;39.60;;;22.80;;
52456;SDS011;38369;52.840;7.082;2022-10-31T16:16:46;34.83;;;23.92;;
52456;SDS011;38369;52.840;7.082;2022-10-31T16:19:16;37.58;;;23.73;;
52456;SDS011;38369;52.840;7.082;2022-10-31T16:21:44;42.00;;;25.80;;
52456;SDS011;38369;52.840;7.082;2022-10-31T16:24:16;140.07;;;85.10;;
52456;SDS011;38369;52.840;7.082;2022-10-31T16:26:47;65.95;;;39.00;;
52456;SDS011;38369;52.840;7.082;2022-10-31T16:32:25;40.40;;;25.95;;
52456;SDS011;38369;52.840;7.082;2022-10-31T16:35:12;45.10;;;27.15;;
52456;SDS011;38369;52.840;7.082;2022-10-31T16:37:41;42.70;;;25.45;;
52456;SDS011;38369;52.840;7.082;2022-10-31T16:40:09;43.40;;;26.20;;
52456;SDS011;38369;52.840;7.082;2022-10-31T16:42:35;42.08;;;26.58;;
52456;SDS011;38369;52.840;7.082;2022-10-31T16:45:01;41.70;;;27.10;;
52456;SDS011;38369;52.840;7.082;2022-10-31T16:47:27;39.83;;;25.33;;
52456;SDS011;38369;52.840;7.082;2022-10-31T16:49:53;40.03;;;25.77;;
52456;SDS011;38369;52.840;7.082;2022-10-31T16:52:24;47.15;;;28.02;;
52456;SDS011;38369;52.840;7.082;2022-10-31T16:54:50;43.95;;;28.00;;
52456;SDS011;38369;52.840;7.082;2022-10-31T16:57:21;45.53;;;27.92;;
52456;SDS011;38369;52.840;7.082;2022-10-31T16:59:50;45.63;;;26.30;;
52456;SDS011;38369;52.840;7.082;2022-10-31T17:02:18;44.67;;;28.58;;
52456;SDS011;38369;52.840;7.082;2022-10-31T17:04:45;46.03;;;28.40;;
52456;SDS011;38369;52.840;7.082;2022-10-31T17:07:11;48.97;;;29.58;;
52456;SDS011;38369;52.840;7.082;2022-10-31T17:09:37;50.97;;;29.45;;
52456;SDS011;38369;52.840;7.082;2022-10-31T17:12:03;46.92;;;29.73;;
52456;SDS011;38369;52.840;7.082;2022-10-31T17:14:30;47.90;;;28.33;;
52456;SDS011;38369;52.840;7.082;2022-10-31T17:16:56;49.45;;;30.65;;